Kingstowne, Virginia
Current Conditions -  °F | °C
As of 8:58 AM on Friday 24 Oct 2014 (Local Time) from KDAA Reporting Station
Clear Clear  
Wind Chill: 56°   Ceiling: Unl
Heat Index: 56°   Visibility: 10mi
Dew Point: 44°   Wind: 18mph
Humidity: 63%   Direction: 300°WNW
Pressure: 29.99"   Gusts: 24mph
Location:  38.755°N, 77.1496°W
Report Text: KDAA 241258Z AUTO 30016G21KT 10SM CLR 13/06 A2999 RMK AO2 SLP159 T01320064
Loading
Personal Weather Stations






























Interactive Weather Map
Tropical Storm Tracking
New forecast layout! Learn more

10-Day Weather Forecast

Advertisements
Track Severe Weather on mobile